Time;durP1;ratioP1;P1;durP2;ratioP2;P2;SDS_P1;SDS_P2;PMS_P1;PMS_P2;Temp;Humidity;BMP_temperature;BMP_pressure;BME280_temperature;BME280_humidity;BME280_pressure;Samples;Min_cycle;Max_cycle;Signal;HPM_P1;HPM_P2
2024/03/04 00:02:45;;;;;;;26.80;16.70;;;6.70;99.90;;;;;;12432484;28;20042;-35
2024/03/04 00:08:47;;;;;;;28.70;17.08;;;6.60;99.90;;;;;;12436058;28;20614;-35
2024/03/04 00:14:49;;;;;;;29.00;17.00;;;6.60;99.90;;;;;;12427487;28;20053;-35
2024/03/04 00:20:51;;;;;;;29.88;17.67;;;6.50;99.90;;;;;;12401323;28;20041;-35
2024/03/04 00:26:53;;;;;;;32.13;17.70;;;6.50;99.90;;;;;;12426719;28;20085;-35
2024/03/04 00:32:55;;;;;;;31.88;19.35;;;6.60;99.90;;;;;;12430365;28;20077;-36
2024/03/04 00:38:57;;;;;;;34.70;18.38;;;6.80;99.90;;;;;;12413187;28;20046;-35
2024/03/04 00:44:59;;;;;;;28.13;17.20;;;6.70;99.90;;;;;;12413791;28;20046;-35
2024/03/04 00:51:01;;;;;;;30.10;18.05;;;6.70;99.90;;;;;;12430713;28;20076;-36
2024/03/04 00:57:04;;;;;;;32.03;16.92;;;6.60;99.90;;;;;;12423044;28;20530;-35
2024/03/04 01:03:06;;;;;;;26.67;16.95;;;6.60;99.90;;;;;;12427210;28;20157;-35
2024/03/04 01:09:10;;;;;;;27.67;16.55;;;6.50;99.90;;;;;;12438019;28;20046;-35
2024/03/04 01:15:13;;;;;;;31.67;17.52;;;6.50;99.90;;;;;;12436449;28;20053;-35
2024/03/04 01:21:16;;;;;;;27.48;16.90;;;6.40;99.90;;;;;;12435211;28;20064;-35
2024/03/04 01:27:19;;;;;;;29.00;16.88;;;6.30;99.90;;;;;;12439813;28;20133;-35
2024/03/04 01:33:22;;;;;;;29.33;17.47;;;6.30;99.90;;;;;;12438392;28;20054;-35
2024/03/04 01:39:24;;;;;;;29.27;17.77;;;6.20;99.90;;;;;;12432922;28;20094;-35
2024/03/04 01:45:27;;;;;;;29.85;17.42;;;6.20;99.90;;;;;;12423881;28;20141;-35
2024/03/04 01:51:30;;;;;;;30.58;16.67;;;6.10;99.90;;;;;;12420792;28;20053;-35
2024/03/04 01:57:32;;;;;;;29.80;17.10;;;6.10;99.90;;;;;;12432596;28;20081;-35
2024/03/04 02:03:35;;;;;;;30.65;17.85;;;6.10;99.90;;;;;;12421729;28;20081;-35
2024/03/04 02:09:38;;;;;;;31.30;18.65;;;6.10;99.90;;;;;;12433802;28;20063;-35
2024/03/04 02:15:41;;;;;;;26.88;17.05;;;6.10;99.90;;;;;;12441308;28;20088;-35
2024/03/04 02:21:50;;;;;;;30.25;16.65;;;5.80;99.90;;;;;;12434139;28;20521;-35
2024/03/04 02:27:52;;;;;;;28.80;17.17;;;5.90;99.90;;;;;;12440738;28;20053;-35
2024/03/04 02:33:54;;;;;;;24.20;15.18;;;5.80;99.90;;;;;;12445910;28;20093;-35
2024/03/04 02:39:57;;;;;;;30.08;17.10;;;5.80;99.90;;;;;;12407921;28;20038;-34
2024/03/04 02:45:59;;;;;;;31.40;16.15;;;5.60;99.90;;;;;;12442903;28;20050;-35
2024/03/04 02:52:01;;;;;;;34.03;17.58;;;5.70;99.90;;;;;;12436925;28;20046;-34
2024/03/04 02:58:06;;;;;;;26.40;15.87;;;5.60;99.90;;;;;;12441020;28;20046;-35
2024/03/04 03:04:08;;;;;;;27.58;16.02;;;5.60;99.90;;;;;;12438748;28;20657;-35
2024/03/04 03:10:10;;;;;;;27.65;16.27;;;5.50;99.90;;;;;;12426964;28;20430;-34
2024/03/04 03:16:22;;;;;;;30.30;18.27;;;5.30;99.90;;;;;;12438150;28;20054;-35
2024/03/04 03:22:24;;;;;;;29.80;17.80;;;5.40;99.90;;;;;;12425592;28;20046;-36
2024/03/04 03:28:27;;;;;;;28.30;16.90;;;5.40;99.90;;;;;;12430245;28;20053;-35
2024/03/04 03:34:29;;;;;;;28.52;16.23;;;5.40;99.90;;;;;;12438740;28;20058;-36
2024/03/04 03:40:31;;;;;;;35.60;18.73;;;5.50;99.90;;;;;;12429688;28;20050;-35
2024/03/04 03:46:34;;;;;;;34.03;17.98;;;5.40;99.90;;;;;;12428961;28;20088;-35
2024/03/04 03:52:36;;;;;;;33.42;18.30;;;5.40;99.90;;;;;;12432164;28;20057;-35
2024/03/04 03:58:38;;;;;;;30.05;17.05;;;5.50;99.90;;;;;;12428682;28;20552;-35
2024/03/04 04:04:40;;;;;;;27.05;16.05;;;5.40;99.90;;;;;;12433616;28;20103;-35
2024/03/04 04:10:42;;;;;;;30.27;15.93;;;5.40;99.90;;;;;;12436870;28;20058;-35
2024/03/04 04:16:44;;;;;;;29.92;16.63;;;5.30;99.90;;;;;;12426915;28;20052;-36
2024/03/04 04:22:46;;;;;;;31.77;17.15;;;5.20;99.90;;;;;;12429716;28;20042;-35
2024/03/04 04:28:48;;;;;;;35.20;18.70;;;5.20;99.90;;;;;;12430709;28;20049;-35
2024/03/04 04:34:50;;;;;;;36.60;19.98;;;5.30;99.90;;;;;;12432189;28;20187;-35
2024/03/04 04:40:51;;;;;;;34.60;18.33;;;5.40;99.90;;;;;;12411102;28;20042;-35
2024/03/04 04:46:54;;;;;;;31.13;17.35;;;5.40;99.90;;;;;;12442422;28;20184;-35
2024/03/04 04:52:56;;;;;;;29.48;16.88;;;5.30;99.90;;;;;;12447383;28;20050;-35
2024/03/04 04:58:57;;;;;;;36.75;19.30;;;5.20;99.90;;;;;;12446367;28;20060;-36
2024/03/04 05:04:59;;;;;;;32.40;18.77;;;5.00;99.90;;;;;;12445624;28;20046;-35
2024/03/04 05:11:09;;;;;;;34.58;20.00;;;5.00;99.90;;;;;;12421695;28;20457;-35
2024/03/04 05:17:11;;;;;;;37.88;20.83;;;4.90;99.90;;;;;;12444814;28;20053;-35
2024/03/04 05:23:12;;;;;;;36.42;20.58;;;4.90;99.90;;;;;;12444365;28;20099;-36
2024/03/04 05:29:14;;;;;;;39.65;22.35;;;4.70;99.90;;;;;;12441063;28;20418;-35
2024/03/04 05:35:16;;;;;;;42.10;22.30;;;5.00;99.90;;;;;;12447111;28;20062;-35
2024/03/04 05:41:18;;;;;;;42.38;22.80;;;4.90;99.90;;;;;;12438484;28;20105;-35
2024/03/04 05:47:20;;;;;;;47.72;23.42;;;5.00;99.90;;;;;;12436025;28;20058;-35
2024/03/04 05:53:23;;;;;;;39.75;22.20;;;4.90;99.90;;;;;;12438275;28;20046;-35
2024/03/04 05:59:25;;;;;;;41.35;23.08;;;4.80;99.90;;;;;;12430555;28;20094;-36
2024/03/04 06:05:27;;;;;;;54.45;25.23;;;4.80;99.90;;;;;;12444444;28;20136;-35
2024/03/04 06:11:29;;;;;;;43.85;25.15;;;4.80;99.90;;;;;;12428363;28;20054;-35
2024/03/04 06:17:31;;;;;;;50.80;26.13;;;4.70;99.90;;;;;;12415063;28;20054;-35
2024/03/04 06:23:33;;;;;;;55.78;27.65;;;4.90;99.90;;;;;;12428624;28;20050;-35
2024/03/04 06:29:35;;;;;;;55.65;27.90;;;5.10;99.90;;;;;;12432010;28;20509;-35
2024/03/04 06:35:37;;;;;;;58.80;30.05;;;5.10;99.90;;;;;;12435645;28;20129;-35
2024/03/04 06:41:40;;;;;;;54.92;26.65;;;5.20;99.90;;;;;;12433169;28;20085;-35
2024/03/04 06:47:42;;;;;;;66.32;26.88;;;5.20;99.90;;;;;;12430465;28;20108;-35
2024/03/04 06:53:44;;;;;;;67.65;27.60;;;5.20;99.90;;;;;;12429819;28;20045;-35
2024/03/04 06:59:45;;;;;;;59.58;28.40;;;5.30;99.90;;;;;;12408613;28;20125;-35
2024/03/04 07:05:47;;;;;;;70.93;29.25;;;5.30;99.90;;;;;;12432576;28;20268;-36
2024/03/04 07:11:49;;;;;;;67.07;29.23;;;5.30;99.90;;;;;;12417213;28;20049;-35
2024/03/04 07:17:51;;;;;;;73.93;30.50;;;5.40;99.90;;;;;;12434619;28;20184;-35
2024/03/04 07:23:53;;;;;;;70.72;31.90;;;5.50;99.90;;;;;;12434701;28;20091;-36
2024/03/04 07:29:54;;;;;;;61.22;29.48;;;5.60;99.90;;;;;;12423784;28;20073;-35
2024/03/04 07:36:04;;;;;;;63.30;29.65;;;5.70;99.90;;;;;;12420022;28;20046;-35
2024/03/04 07:42:06;;;;;;;73.82;30.30;;;5.80;99.90;;;;;;12404854;28;20077;-36
2024/03/04 07:48:08;;;;;;;74.32;28.75;;;5.70;99.90;;;;;;12432487;28;20050;-36
2024/03/04 07:54:10;;;;;;;62.28;30.98;;;5.80;99.90;;;;;;12432633;28;20076;-35
2024/03/04 08:00:15;;;;;;;71.38;30.13;;;5.90;99.90;;;;;;12434608;28;20553;-36
2024/03/04 08:06:19;;;;;;;65.18;31.65;;;5.90;99.90;;;;;;12416341;28;20050;-36
2024/03/04 08:12:21;;;;;;;66.40;31.27;;;6.00;99.90;;;;;;12435564;28;20537;-35
2024/03/04 08:18:23;;;;;;;58.70;31.73;;;6.00;99.90;;;;;;12422747;28;20046;-35
2024/03/04 08:24:25;;;;;;;75.05;32.22;;;6.10;99.90;;;;;;12430321;28;20182;-35
2024/03/04 08:30:27;;;;;;;67.05;32.72;;;6.00;99.90;;;;;;12426055;28;20188;-36
2024/03/04 08:36:29;;;;;;;70.40;31.38;;;6.00;99.90;;;;;;12424890;28;20197;-35
2024/03/04 08:42:32;;;;;;;66.68;32.55;;;6.00;99.90;;;;;;12431752;28;20073;-35
2024/03/04 08:48:33;;;;;;;72.50;32.78;;;6.10;99.90;;;;;;12427569;28;20057;-35
2024/03/04 08:54:35;;;;;;;66.82;30.55;;;6.30;99.90;;;;;;12421029;28;20084;-35
2024/03/04 09:00:37;;;;;;;60.95;31.77;;;6.20;99.90;;;;;;12430919;28;20172;-36
2024/03/04 09:06:39;;;;;;;54.20;30.77;;;6.20;99.90;;;;;;12422886;28;20038;-35
2024/03/04 09:12:41;;;;;;;60.13;31.70;;;6.30;99.90;;;;;;12422933;28;20129;-35
2024/03/04 09:18:43;;;;;;;64.70;32.05;;;6.30;99.90;;;;;;12434033;28;20108;-35
2024/03/04 09:24:45;;;;;;;55.85;29.92;;;6.20;99.90;;;;;;12423821;28;20176;-35
2024/03/04 09:30:47;;;;;;;61.30;31.65;;;6.40;99.90;;;;;;12430202;28;20092;-36
2024/03/04 09:36:49;;;;;;;63.20;32.95;;;6.40;99.90;;;;;;12434530;28;20173;-36
2024/03/04 09:42:51;;;;;;;62.17;32.78;;;6.40;99.90;;;;;;12419988;28;20045;-36
2024/03/04 09:48:54;;;;;;;51.30;29.67;;;6.50;99.90;;;;;;12442784;28;20053;-35
2024/03/04 09:54:57;;;;;;;54.90;30.35;;;6.40;99.90;;;;;;12430078;28;20045;-35
2024/03/04 10:01:04;;;;;;;55.17;29.58;;;6.50;99.90;;;;;;12430874;28;20073;-35
2024/03/04 10:07:07;;;;;;;53.30;28.25;;;6.60;99.90;;;;;;12429953;28;20096;-35
2024/03/04 10:13:10;;;;;;;55.40;28.80;;;6.70;99.90;;;;;;12435671;28;20415;-36
2024/03/04 10:19:18;;;;;;;43.25;25.48;;;6.90;99.90;;;;;;12429109;28;20058;-35
2024/03/04 10:25:20;;;;;;;47.95;29.42;;;6.80;99.90;;;;;;12437399;28;20058;-36
2024/03/04 10:31:22;;;;;;;52.08;32.45;;;7.00;99.90;;;;;;12437487;28;20081;-35
2024/03/04 10:37:24;;;;;;;54.97;32.05;;;7.00;99.90;;;;;;12438086;28;20050;-35
2024/03/04 10:43:29;;;;;;;50.65;31.40;;;7.10;99.90;;;;;;12427032;28;20061;-36
2024/03/04 10:49:31;;;;;;;;;;;7.00;99.90;;;;;;12427493;28;20061;-35
2024/03/04 10:55:33;;;;;;;47.67;29.73;;;7.00;99.90;;;;;;12427923;28;20305;-36
2024/03/04 11:01:35;;;;;;;45.30;29.85;;;6.90;99.90;;;;;;12438288;28;20403;-35
2024/03/04 11:07:42;;;;;;;49.75;30.13;;;7.00;99.90;;;;;;12426831;28;20046;-35
2024/03/04 11:14:06;;;;;;;47.47;30.75;;;7.30;99.90;;;;;;12425466;28;20417;-36
2024/03/04 11:20:09;;;;;;;49.72;31.92;;;7.30;99.90;;;;;;12421853;28;20046;-36
2024/03/04 11:26:12;;;;;;;46.85;33.63;;;7.30;99.90;;;;;;12430703;28;20120;-36
2024/03/04 11:32:22;;;;;;;44.38;29.70;;;7.40;99.90;;;;;;12433343;28;20397;-35
2024/03/04 11:38:27;;;;;;;52.67;32.17;;;7.50;99.90;;;;;;12429505;28;20049;-35
2024/03/04 11:44:28;;;;;;;52.45;30.40;;;7.30;99.90;;;;;;12440714;28;20045;-36
2024/03/04 11:50:39;;;;;;;47.47;30.48;;;7.20;99.90;;;;;;12431605;28;20495;-35
2024/03/04 11:56:44;;;;;;;48.15;33.17;;;7.20;99.90;;;;;;12431653;28;20054;-36
2024/03/04 12:03:03;;;;;;;49.88;31.70;;;7.30;99.90;;;;;;12426738;28;20414;-36
2024/03/04 12:09:05;;;;;;;50.58;29.98;;;7.50;99.90;;;;;;12432136;28;20172;-36
2024/03/04 12:15:28;;;;;;;53.47;33.08;;;7.50;99.90;;;;;;12431305;28;20054;-36
2024/03/04 12:21:30;;;;;;;52.90;35.10;;;7.70;99.90;;;;;;12417069;28;20132;-36
2024/03/04 12:27:33;;;;;;;51.30;37.03;;;7.80;99.90;;;;;;12416150;28;20085;-36
2024/03/04 12:33:35;;;;;;;60.67;41.13;;;7.90;99.90;;;;;;12424398;28;20091;-36
2024/03/04 12:39:37;;;;;;;67.53;41.50;;;7.80;99.90;;;;;;12425229;28;20057;-36
2024/03/04 12:45:39;;;;;;;56.60;39.63;;;7.90;99.90;;;;;;12432381;28;20133;-36
2024/03/04 12:51:40;;;;;;;51.45;36.95;;;7.80;99.90;;;;;;12435668;28;20088;-36
2024/03/04 12:57:44;;;;;;;62.20;42.17;;;7.80;99.90;;;;;;12435180;28;20061;-35
2024/03/04 13:03:45;;;;;;;64.35;40.78;;;7.70;99.90;;;;;;12427304;28;20084;-35
2024/03/04 13:09:48;;;;;;;68.15;43.88;;;7.70;99.90;;;;;;12434452;28;20212;-36
2024/03/04 13:15:54;;;;;;;68.38;42.03;;;7.70;99.90;;;;;;12441940;28;20161;-35
2024/03/04 13:21:56;;;;;;;66.57;41.17;;;7.70;99.90;;;;;;12431348;28;20115;-36
2024/03/04 13:27:57;;;;;;;65.68;40.13;;;7.70;99.90;;;;;;12437300;28;21546;-36
2024/03/04 13:33:59;;;;;;;70.47;39.47;;;7.60;99.90;;;;;;12444567;28;20092;-36
2024/03/04 13:40:02;;;;;;;63.38;39.15;;;7.60;99.90;;;;;;12436960;28;20078;-35
2024/03/04 13:46:04;;;;;;;61.55;40.20;;;7.70;99.90;;;;;;12424987;28;20456;-36
2024/03/04 13:52:06;;;;;;;65.95;41.40;;;7.70;99.90;;;;;;12438520;28;20410;-36
2024/03/04 13:58:08;;;;;;;70.65;42.72;;;7.70;99.90;;;;;;12426495;28;20049;-36
2024/03/04 14:04:10;;;;;;;64.82;43.00;;;7.70;99.90;;;;;;12437417;28;20560;-36
2024/03/04 14:10:12;;;;;;;67.82;41.45;;;7.70;99.90;;;;;;12429718;28;20053;-35
2024/03/04 14:16:15;;;;;;;63.25;42.00;;;7.80;99.90;;;;;;12434914;28;20050;-36
2024/03/04 14:22:17;;;;;;;67.25;42.25;;;7.70;99.90;;;;;;12436714;28;20140;-36
2024/03/04 14:28:19;;;;;;;67.65;43.08;;;7.70;99.90;;;;;;12436772;28;20041;-36
2024/03/04 14:34:21;;;;;;;69.82;43.92;;;7.70;99.90;;;;;;12403681;28;20115;-36
2024/03/04 14:40:23;;;;;;;69.55;44.40;;;7.70;99.90;;;;;;12434222;28;20085;-36
2024/03/04 14:46:24;;;;;;;68.53;44.55;;;7.70;99.90;;;;;;12438491;28;20060;-36
2024/03/04 14:52:26;;;;;;;63.50;42.30;;;7.70;99.90;;;;;;12433971;28;20054;-35
2024/03/04 14:58:28;;;;;;;62.80;42.05;;;7.70;99.90;;;;;;12436908;28;20254;-35
2024/03/04 15:04:30;;;;;;;69.88;45.33;;;7.70;99.90;;;;;;12431707;28;20049;-36
2024/03/04 15:10:32;;;;;;;71.18;44.42;;;7.70;99.90;;;;;;12435112;28;20045;-35
2024/03/04 15:16:34;;;;;;;69.15;42.47;;;7.70;99.90;;;;;;12433653;28;20395;-36
2024/03/04 15:22:42;;;;;;;73.47;45.17;;;7.60;99.90;;;;;;12425803;28;20132;-36
2024/03/04 15:28:44;;;;;;;66.03;42.70;;;7.70;99.90;;;;;;12406121;28;20782;-36
2024/03/04 15:34:46;;;;;;;72.13;43.50;;;7.60;99.90;;;;;;12419895;28;20054;-35
2024/03/04 15:40:48;;;;;;;78.95;45.25;;;7.60;99.90;;;;;;12416521;28;20042;-36
2024/03/04 15:46:50;;;;;;;76.30;41.50;;;7.60;99.90;;;;;;12440066;28;20096;-35
2024/03/04 15:52:54;;;;;;;69.50;44.38;;;7.60;99.90;;;;;;12430920;28;20058;-36
2024/03/04 15:58:56;;;;;;;76.03;44.58;;;7.50;99.90;;;;;;12431495;28;20165;-35
2024/03/04 16:04:58;;;;;;;74.63;45.83;;;7.60;99.90;;;;;;12434985;28;20077;-35
2024/03/04 16:11:00;;;;;;;73.82;43.55;;;7.60;99.90;;;;;;12432621;28;20046;-35
2024/03/04 16:17:02;;;;;;;73.93;43.90;;;7.50;99.90;;;;;;12436158;28;20050;-36
2024/03/04 16:23:04;;;;;;;74.57;44.10;;;7.50;99.90;;;;;;12430490;28;20096;-36
2024/03/04 16:29:06;;;;;;;74.18;44.70;;;7.50;99.90;;;;;;12427735;28;20077;-35
2024/03/04 16:35:08;;;;;;;79.43;42.92;;;7.50;99.90;;;;;;12426709;28;20065;-35
2024/03/04 16:41:20;;;;;;;76.00;44.15;;;7.40;99.90;;;;;;12419600;28;20053;-35
2024/03/04 16:47:21;;;;;;;75.50;44.72;;;7.40;99.90;;;;;;12427181;28;20574;-35
2024/03/04 16:53:24;;;;;;;64.88;40.47;;;7.40;99.90;;;;;;12426387;28;20089;-35
2024/03/04 16:59:27;;;;;;;86.18;43.75;;;7.40;99.90;;;;;;12425785;28;20046;-35
2024/03/04 17:05:29;;;;;;;68.25;44.30;;;7.40;99.90;;;;;;12433285;28;20507;-35
2024/03/04 17:11:31;;;;;;;72.20;41.05;;;7.40;99.90;;;;;;12432131;28;20056;-36
2024/03/04 17:17:34;;;;;;;84.40;44.78;;;7.40;99.90;;;;;;12426791;28;20054;-36
2024/03/04 17:23:38;;;;;;;79.13;46.75;;;7.40;99.90;;;;;;12430837;28;20041;-35
2024/03/04 17:29:39;;;;;;;81.05;45.78;;;7.40;99.90;;;;;;12429376;28;20184;-35
2024/03/04 17:35:41;;;;;;;76.35;43.58;;;7.40;99.90;;;;;;12432009;28;20069;-35
2024/03/04 17:41:43;;;;;;;82.22;45.83;;;7.30;99.90;;;;;;12426454;28;20058;-35
2024/03/04 17:47:45;;;;;;;83.53;45.03;;;7.30;99.90;;;;;;12428854;28;20042;-35
2024/03/04 17:53:47;;;;;;;85.38;42.63;;;7.30;99.90;;;;;;12429156;28;20046;-35
2024/03/04 17:59:48;;;;;;;81.40;44.30;;;7.30;99.90;;;;;;12436465;28;20459;-35
2024/03/04 18:05:50;;;;;;;70.15;38.42;;;7.30;99.90;;;;;;12435491;28;20774;-36
2024/03/04 18:11:52;;;;;;;83.90;41.58;;;7.30;99.90;;;;;;12440877;28;20108;-36
2024/03/04 18:17:54;;;;;;;92.72;48.17;;;7.30;99.90;;;;;;12433413;28;20074;-35
2024/03/04 18:23:56;;;;;;;94.93;46.30;;;7.30;99.90;;;;;;12435203;28;20491;-35
2024/03/04 18:29:58;;;;;;;93.90;46.55;;;7.30;99.90;;;;;;12407561;28;20157;-35
2024/03/04 18:36:00;;;;;;;81.53;45.38;;;7.30;99.90;;;;;;12434899;28;20097;-36
2024/03/04 18:42:02;;;;;;;98.55;48.20;;;7.30;99.90;;;;;;12435454;28;20487;-36
2024/03/04 18:48:05;;;;;;;97.05;45.70;;;7.30;99.90;;;;;;12432367;28;20054;-35
2024/03/04 18:54:07;;;;;;;97.10;46.25;;;7.30;99.90;;;;;;12436222;28;20499;-36
2024/03/04 19:00:10;;;;;;;93.90;46.63;;;7.20;99.90;;;;;;12434729;28;20050;-35
2024/03/04 19:06:11;;;;;;;97.38;47.13;;;7.30;99.90;;;;;;12434981;28;20446;-36
2024/03/04 19:12:13;;;;;;;97.95;46.75;;;7.30;99.90;;;;;;12436881;28;20481;-35
2024/03/04 19:18:15;;;;;;;85.40;47.10;;;7.30;99.90;;;;;;12439872;28;20061;-35
2024/03/04 19:24:17;;;;;;;88.13;47.08;;;7.20;99.90;;;;;;12428129;28;20124;-36
2024/03/04 19:30:19;;;;;;;86.55;48.25;;;7.20;99.90;;;;;;12442715;28;20136;-35
2024/03/04 19:36:21;;;;;;;88.03;47.60;;;7.30;99.90;;;;;;12403835;28;20082;-35
2024/03/04 19:42:23;;;;;;;94.65;49.00;;;7.20;99.90;;;;;;12431641;28;20133;-35
2024/03/04 19:48:25;;;;;;;98.93;45.95;;;7.20;99.90;;;;;;12434479;28;20144;-35
2024/03/04 19:54:27;;;;;;;97.47;50.28;;;7.20;99.90;;;;;;12431389;28;20085;-36
2024/03/04 20:00:29;;;;;;;91.78;48.40;;;7.30;99.90;;;;;;12429491;28;20566;-36
2024/03/04 20:06:31;;;;;;;86.28;46.53;;;7.20;99.90;;;;;;12448964;28;20049;-36
2024/03/04 20:12:33;;;;;;;86.88;47.75;;;7.20;99.90;;;;;;12428225;28;20145;-36
2024/03/04 20:18:36;;;;;;;77.38;44.47;;;7.20;99.90;;;;;;12421192;28;20068;-35
2024/03/04 20:24:38;;;;;;;84.45;45.67;;;7.20;99.90;;;;;;12427774;28;20046;-35
2024/03/04 20:30:41;;;;;;;83.93;43.78;;;7.20;99.90;;;;;;12433561;28;20134;-35
2024/03/04 20:36:42;;;;;;;92.03;43.25;;;7.30;99.90;;;;;;12411807;28;20057;-35
2024/03/04 20:42:44;;;;;;;81.75;39.60;;;7.30;99.90;;;;;;12426559;28;20161;-36
2024/03/04 20:48:46;;;;;;;98.65;42.50;;;7.30;99.90;;;;;;12432594;28;20050;-35
2024/03/04 20:54:48;;;;;;;75.30;36.33;;;7.20;99.90;;;;;;12430967;28;20123;-36
2024/03/04 21:00:50;;;;;;;88.97;40.78;;;7.20;99.90;;;;;;12425762;28;20085;-35
2024/03/04 21:06:51;;;;;;;93.07;42.13;;;7.30;99.90;;;;;;12437301;28;20041;-36
2024/03/04 21:12:58;;;;;;;93.80;42.75;;;7.20;99.90;;;;;;12421185;28;20481;-35
2024/03/04 21:19:02;;;;;;;93.10;43.90;;;7.20;99.90;;;;;;12431661;28;20058;-35
2024/03/04 21:25:06;;;;;;;95.88;42.15;;;7.20;99.90;;;;;;12423877;28;20091;-35
2024/03/04 21:31:09;;;;;;;104.78;43.53;;;7.10;99.90;;;;;;12438993;28;20481;-35
2024/03/04 21:37:11;;;;;;;96.53;43.45;;;7.20;99.90;;;;;;12441381;28;20058;-36
2024/03/04 21:43:25;;;;;;;97.07;45.37;;;7.20;99.90;;;;;;12434230;28;20050;-35
2024/03/04 21:49:28;;;;;;;97.05;41.97;;;7.20;99.90;;;;;;12441848;28;20096;-36
2024/03/04 21:55:30;;;;;;;90.50;43.08;;;7.20;99.90;;;;;;12436843;28;20053;-37
2024/03/04 22:01:32;;;;;;;89.60;39.35;;;7.20;99.90;;;;;;12435690;28;20053;-35
2024/03/04 22:07:34;;;;;;;94.13;41.63;;;7.20;99.90;;;;;;12438981;28;20046;-35
2024/03/04 22:13:39;;;;;;;88.80;39.13;;;7.20;99.90;;;;;;12423485;28;20057;-35
2024/03/04 22:19:41;;;;;;;81.10;34.78;;;7.20;99.90;;;;;;12432855;28;20050;-36
2024/03/04 22:25:43;;;;;;;100.05;39.17;;;7.20;99.90;;;;;;12442944;28;20376;-35
2024/03/04 22:31:45;;;;;;;91.53;38.75;;;7.20;99.90;;;;;;12434301;28;20053;-36
2024/03/04 22:37:47;;;;;;;92.18;39.08;;;7.20;99.90;;;;;;12411760;28;20066;-34
2024/03/04 22:43:49;;;;;;;79.80;34.13;;;7.20;99.90;;;;;;12416763;28;20046;-36
2024/03/04 22:49:52;;;;;;;88.80;36.97;;;7.20;99.90;;;;;;12415353;28;20417;-35
2024/03/04 22:55:54;;;;;;;92.65;38.67;;;7.20;99.90;;;;;;12408438;28;20049;-35
2024/03/04 23:01:56;;;;;;;100.38;36.40;;;7.20;99.90;;;;;;12376257;28;20060;-35
2024/03/04 23:07:58;;;;;;;104.22;39.95;;;7.20;99.90;;;;;;12419560;28;20049;-34
2024/03/04 23:14:00;;;;;;;104.25;42.35;;;7.20;99.90;;;;;;12415989;28;20046;-35
2024/03/04 23:20:07;;;;;;;127.18;44.03;;;7.20;99.90;;;;;;12394639;28;20376;-35
2024/03/04 23:26:09;;;;;;;122.05;42.90;;;7.20;99.90;;;;;;12433765;28;20499;-35
2024/03/04 23:32:11;;;;;;;91.75;38.42;;;7.10;99.90;;;;;;12435278;28;20132;-36
2024/03/04 23:38:13;;;;;;;102.50;38.38;;;7.10;99.90;;;;;;12436371;28;20145;-36
2024/03/04 23:44:15;;;;;;;106.75;40.85;;;7.10;99.90;;;;;;12426090;28;20046;-36
2024/03/04 23:50:18;;;;;;;113.55;33.85;;;7.20;99.90;;;;;;12432474;28;20140;-36
2024/03/04 23:56:20;;;;;;;111.07;28.90;;;7.20;99.90;;;;;;12431365;28;20519;-36
